createdAt,value
2022-11-14T00:07:30.982Z,35.60
2022-11-14T00:22:32.674Z,36.50
2022-11-14T00:37:33.011Z,37.90
2022-11-14T00:52:33.207Z,38.60
2022-11-14T01:07:33.242Z,38.00
2022-11-14T01:22:33.449Z,38.60
2022-11-14T01:37:33.473Z,41.40
2022-11-14T01:52:34.077Z,39.30
2022-11-14T02:07:34.728Z,40.40
2022-11-14T02:22:35.383Z,41.30
2022-11-14T02:37:35.916Z,40.00
2022-11-14T02:52:36.137Z,43.70
2022-11-14T03:07:36.629Z,45.50
2022-11-14T03:22:36.870Z,46.10
2022-11-14T03:37:37.350Z,44.90
2022-11-14T03:52:39.339Z,42.00
2022-11-14T04:07:39.965Z,43.30
2022-11-14T04:22:41.177Z,41.70
2022-11-14T04:37:42.233Z,44.20
2022-11-14T04:52:43.298Z,44.90
2022-11-14T05:07:43.787Z,42.20
2022-11-14T05:22:43.921Z,43.50
2022-11-14T05:37:45.275Z,43.50
2022-11-14T05:52:47.148Z,42.90
2022-11-14T06:07:47.422Z,43.40
2022-11-14T06:22:49.696Z,44.80
2022-11-14T06:37:52.038Z,43.20
2022-11-14T06:52:54.439Z,44.70
2022-11-14T07:07:55.809Z,44.00
2022-11-14T07:22:57.756Z,41.30
2022-11-14T07:38:00.233Z,42.40
2022-11-14T07:53:00.627Z,40.90
2022-11-14T08:08:00.756Z,40.30
2022-11-14T08:23:02.123Z,37.80
2022-11-14T08:38:04.018Z,35.70
2022-11-14T08:53:05.229Z,35.10
2022-11-14T09:08:05.704Z,32.30
2022-11-14T09:23:06.311Z,31.10
2022-11-14T09:38:06.443Z,30.90
2022-11-14T09:53:07.232Z,28.40
2022-11-14T10:08:07.659Z,28.20
2022-11-14T10:23:09.069Z,29.30
2022-11-14T10:38:10.417Z,27.40
2022-11-14T10:53:11.772Z,25.60
2022-11-14T11:08:36.595Z,24.10
2022-11-14T11:23:19.357Z,23.30
2022-11-14T11:38:19.844Z,23.80
2022-11-14T11:53:19.727Z,25.30
2022-11-14T12:08:21.539Z,26.40
2022-11-14T12:23:22.945Z,25.00
2022-11-14T12:38:24.268Z,23.10
2022-11-14T12:53:24.424Z,23.50
2022-11-14T13:08:24.969Z,24.20
2022-11-14T13:23:26.419Z,24.20
2022-11-14T13:38:27.030Z,23.40
2022-11-14T13:53:27.964Z,23.60
2022-11-14T14:08:27.841Z,22.80
2022-11-14T14:23:28.908Z,23.20
2022-11-14T14:38:29.364Z,23.10
2022-11-14T14:53:29.762Z,22.10
2022-11-14T15:08:31.504Z,23.80
2022-11-14T15:23:33.511Z,24.00
2022-11-14T15:38:44.096Z,26.10
2022-11-14T15:53:41.745Z,26.10
2022-11-14T16:08:44.555Z,25.20
2022-11-14T16:23:47.004Z,29.10
2022-11-14T16:38:52.083Z,29.30
2022-11-14T16:53:55.308Z,27.90
2022-11-14T17:08:55.858Z,28.00
2022-11-14T17:23:56.482Z,30.20
2022-11-14T17:38:57.092Z,31.70
2022-11-14T17:53:57.334Z,29.80
2022-11-14T18:08:57.855Z,36.60
2022-11-14T18:23:58.447Z,34.90
2022-11-14T18:38:59.812Z,34.90
2022-11-14T18:53:59.937Z,35.00
2022-11-14T19:09:05.627Z,31.60
2022-11-14T19:24:09.387Z,34.20
2022-11-14T19:39:11.511Z,39.10
2022-11-14T19:54:12.480Z,40.30
2022-11-14T20:09:13.651Z,37.80
2022-11-14T20:24:15.010Z,40.20
2022-11-14T20:39:15.660Z,36.90
2022-11-14T20:54:16.366Z,38.60
2022-11-14T21:09:17.878Z,41.50
2022-11-14T21:24:17.594Z,42.90
2022-11-14T21:39:19.458Z,43.80
2022-11-14T21:54:21.317Z,43.10
2022-11-14T22:09:21.668Z,41.10
2022-11-14T22:24:23.022Z,41.40
2022-11-14T22:39:23.151Z,39.80
2022-11-14T22:54:23.731Z,43.00
2022-11-14T23:09:23.385Z,41.20
2022-11-14T23:24:23.457Z,33.90
2022-11-14T23:39:23.603Z,36.10
2022-11-14T23:54:24.196Z,35.20
